Time;durP1;ratioP1;P1;durP2;ratioP2;P2;SDS_P1;SDS_P2;PMS_P1;PMS_P2;Temp;Humidity;BMP_temperature;BMP_pressure;BME280_temperature;BME280_humidity;BME280_pressure;Samples;Min_cycle;Max_cycle;Signal;HPM_P1;HPM_P2
2022/10/12 00:00:25;;;;;;;3.97;0.65;;;18.80;99.90;;;;;;5090589;28;20199;-79
2022/10/12 00:02:59;;;;;;;2.85;0.73;;;18.80;99.90;;;;;;5070245;28;20687;-80
2022/10/12 00:05:30;;;;;;;2.38;0.55;;;18.80;99.90;;;;;;5084639;28;20285;-80
2022/10/12 00:08:01;;;;;;;3.58;0.63;;;18.90;99.90;;;;;;5091647;28;20369;-79
2022/10/12 00:10:34;;;;;;;2.33;0.60;;;19.00;99.90;;;;;;5089252;28;20676;-79
2022/10/12 00:13:09;;;;;;;3.47;0.70;;;19.00;99.90;;;;;;5096480;28;20195;-80
2022/10/12 00:15:41;;;;;;;1.85;0.65;;;19.00;99.90;;;;;;5103360;28;20230;-80
2022/10/12 00:18:12;;;;;;;4.38;0.93;;;18.90;99.90;;;;;;5102509;28;20209;-80
2022/10/12 00:20:43;;;;;;;1.90;0.52;;;19.00;99.90;;;;;;5098326;28;20195;-79
2022/10/12 00:23:14;;;;;;;1.63;0.75;;;19.00;99.90;;;;;;5091772;28;20199;-80
2022/10/12 00:25:45;;;;;;;2.40;0.60;;;18.90;99.90;;;;;;5091629;28;20191;-80
2022/10/12 00:28:18;;;;;;;3.45;0.50;;;18.80;99.90;;;;;;5084277;28;20229;-79
2022/10/12 00:30:49;;;;;;;2.70;0.70;;;18.70;99.90;;;;;;5078343;28;20231;-79
2022/10/12 00:33:19;;;;;;;4.20;0.50;;;18.60;99.90;;;;;;5071073;28;20196;-79
2022/10/12 00:35:51;;;;;;;4.15;0.68;;;18.70;99.90;;;;;;5083739;28;20200;-79
2022/10/12 00:38:22;;;;;;;2.05;0.50;;;18.60;99.90;;;;;;5092089;28;20210;-79
2022/10/12 00:40:53;;;;;;;4.43;1.05;;;18.60;99.90;;;;;;5092818;28;20201;-79
2022/10/12 00:43:33;;;;;;;3.03;0.60;;;18.70;99.90;;;;;;5085543;28;20195;-79
2022/10/12 00:46:07;;;;;;;3.35;0.98;;;18.70;99.90;;;;;;5091524;28;20243;-79
2022/10/12 00:48:39;;;;;;;2.53;0.60;;;18.80;99.90;;;;;;5100250;28;20254;-80
2022/10/12 00:51:11;;;;;;;2.10;0.73;;;18.90;99.90;;;;;;5088757;28;20303;-80
2022/10/12 00:53:44;;;;;;;3.10;0.80;;;18.90;99.90;;;;;;5093559;28;20199;-81
2022/10/12 00:56:19;;;;;;;2.92;0.85;;;19.00;99.90;;;;;;5093025;28;20191;-80
2022/10/12 00:58:56;;;;;;;2.47;0.63;;;19.10;99.90;;;;;;5083892;28;20203;-80
2022/10/12 01:01:27;;;;;;;2.13;0.50;;;19.20;99.90;;;;;;5089412;28;20198;-78
2022/10/12 01:03:58;;;;;;;3.05;0.73;;;19.30;99.90;;;;;;5074734;28;20225;-78
2022/10/12 01:06:29;;;;;;;2.67;0.70;;;19.30;99.90;;;;;;5089430;28;20267;-79
2022/10/12 01:09:01;;;;;;;1.90;0.50;;;19.20;99.90;;;;;;5087448;28;20566;-80
2022/10/12 01:11:32;;;;;;;1.02;0.40;;;19.10;99.90;;;;;;5086477;28;20195;-81
2022/10/12 01:14:05;;;;;;;1.05;0.35;;;19.00;99.90;;;;;;5082040;28;20200;-80
2022/10/12 01:16:43;;;;;;;3.05;0.50;;;19.00;99.90;;;;;;5082172;28;20198;-80
2022/10/12 01:19:30;;;;;;;2.80;0.60;;;19.20;99.90;;;;;;5077714;28;20207;-79
2022/10/12 01:22:05;;;;;;;0.88;0.40;;;19.20;99.90;;;;;;5091367;28;20730;-78
2022/10/12 01:24:45;;;;;;;2.42;0.77;;;19.40;99.90;;;;;;5095932;28;20225;-80
2022/10/12 01:27:35;;;;;;;2.75;0.65;;;19.40;99.90;;;;;;5080538;28;20593;-81
2022/10/12 01:30:24;;;;;;;4.32;0.88;;;19.50;99.90;;;;;;5083861;28;20313;-81
2022/10/12 01:33:33;;;;;;;4.28;0.95;;;19.70;99.90;;;;;;5090981;28;20195;-82
2022/10/12 01:36:11;;;;;;;2.55;0.82;;;20.10;99.90;;;;;;5087789;28;20203;-80
2022/10/12 01:38:50;;;;;;;2.55;0.63;;;20.40;99.90;;;;;;5090716;28;20648;-81
2022/10/12 01:41:25;;;;;;;3.25;0.80;;;20.70;99.90;;;;;;5089192;28;20195;-80
2022/10/12 01:43:56;;;;;;;3.00;0.60;;;21.10;99.90;;;;;;5088325;28;20285;-79
2022/10/12 01:46:49;;;;;;;4.38;0.73;;;21.20;99.90;;;;;;5094497;28;20632;-81
2022/10/12 01:49:24;;;;;;;1.58;0.40;;;21.50;99.90;;;;;;5094078;28;20223;-81
2022/10/12 01:52:32;;;;;;;3.17;0.50;;;21.60;99.90;;;;;;5105257;28;20208;-80
2022/10/12 01:55:24;;;;;;;2.67;0.65;;;21.50;99.90;;;;;;5094599;28;20222;-81
2022/10/12 01:58:10;;;;;;;1.92;0.63;;;21.40;99.90;;;;;;5091875;28;20215;-81
2022/10/12 02:00:48;;;;;;;3.10;0.70;;;21.40;99.90;;;;;;5084670;28;20207;-82
2022/10/12 02:03:27;;;;;;;3.63;0.52;;;21.40;99.90;;;;;;5094276;28;20218;-79
2022/10/12 02:06:03;;;;;;;3.25;0.73;;;21.40;99.90;;;;;;5074566;28;20202;-81
2022/10/12 02:08:39;;;;;;;1.75;0.63;;;21.40;99.90;;;;;;5086557;28;20688;-80
2022/10/12 02:11:15;;;;;;;3.00;0.63;;;21.40;99.90;;;;;;5092309;28;20287;-80
2022/10/12 02:13:51;;;;;;;2.42;0.80;;;21.40;99.90;;;;;;5096277;28;20229;-80
2022/10/12 02:16:27;;;;;;;3.22;1.00;;;21.30;99.90;;;;;;5106266;28;20190;-81
2022/10/12 02:19:05;;;;;;;3.15;0.70;;;21.30;99.90;;;;;;5086628;28;20184;-81
2022/10/12 02:21:38;;;;;;;5.55;0.82;;;21.20;99.90;;;;;;5086468;28;20207;-80
2022/10/12 02:24:11;;;;;;;3.30;0.73;;;21.10;99.90;;;;;;5084044;28;20196;-81
2022/10/12 02:26:46;;;;;;;5.03;1.13;;;21.00;99.90;;;;;;5087669;28;20243;-81
2022/10/12 02:29:22;;;;;;;6.68;0.77;;;20.90;99.90;;;;;;5102420;28;20242;-81
2022/10/12 02:31:59;;;;;;;4.07;0.80;;;20.80;99.90;;;;;;5101931;28;20195;-81
2022/10/12 02:34:39;;;;;;;2.05;0.75;;;20.80;99.90;;;;;;5106121;28;20365;-81
2022/10/12 02:37:21;;;;;;;1.75;0.55;;;20.80;99.90;;;;;;5105904;28;20198;-80
2022/10/12 02:39:56;;;;;;;4.00;0.75;;;20.80;99.90;;;;;;5104038;28;20645;-81
2022/10/12 02:42:33;;;;;;;4.47;0.80;;;20.80;99.90;;;;;;5104724;28;20278;-79
2022/10/12 02:45:09;;;;;;;3.20;0.80;;;20.80;99.90;;;;;;5104244;28;20286;-80
2022/10/12 02:47:41;;;;;;;1.23;0.60;;;20.70;99.90;;;;;;5103421;28;20195;-80
2022/10/12 02:50:18;;;;;;;5.13;0.80;;;20.60;99.90;;;;;;5100871;28;20215;-87
2022/10/12 02:52:49;;;;;;;2.53;0.60;;;20.60;99.90;;;;;;5105383;28;20662;-79
2022/10/12 02:55:24;;;;;;;3.30;0.63;;;20.80;99.90;;;;;;5104365;28;20202;-80
2022/10/12 02:57:55;;;;;;;3.65;0.70;;;20.80;99.90;;;;;;5098116;28;20209;-77
2022/10/12 03:00:26;;;;;;;2.35;0.50;;;20.80;99.90;;;;;;5103123;28;20230;-79
2022/10/12 03:03:00;;;;;;;4.20;1.00;;;20.70;99.90;;;;;;5096948;28;20624;-77
2022/10/12 03:05:35;;;;;;;3.70;0.77;;;20.70;99.90;;;;;;5085784;28;20257;-79
2022/10/12 03:08:06;;;;;;;2.72;0.70;;;20.80;99.90;;;;;;5094944;28;20195;-79
2022/10/12 03:10:37;;;;;;;2.72;0.70;;;20.70;99.90;;;;;;5102440;28;20222;-80
2022/10/12 03:13:10;;;;;;;3.88;0.57;;;20.80;99.90;;;;;;5100779;28;20234;-80
2022/10/12 03:15:41;;;;;;;2.03;0.75;;;20.70;99.90;;;;;;5100448;28;20227;-79
2022/10/12 03:18:12;;;;;;;2.45;0.60;;;20.70;99.90;;;;;;5098693;28;20209;-79
2022/10/12 03:20:49;;;;;;;3.50;0.70;;;20.70;99.90;;;;;;5091796;28;20203;-79
2022/10/12 03:23:20;;;;;;;2.85;0.50;;;20.70;99.90;;;;;;5097989;28;20282;-78
2022/10/12 03:25:51;;;;;;;2.60;0.70;;;20.70;99.90;;;;;;5100544;28;20191;-79
2022/10/12 03:28:23;;;;;;;3.05;0.50;;;20.70;99.90;;;;;;5099077;28;20251;-79
2022/10/12 03:30:54;;;;;;;2.78;0.70;;;20.70;99.90;;;;;;5098436;28;20317;-79
2022/10/12 03:33:26;;;;;;;3.03;0.80;;;20.60;99.90;;;;;;5092524;28;20187;-81
2022/10/12 03:35:59;;;;;;;2.30;0.75;;;20.70;99.90;;;;;;5089409;28;20191;-80
2022/10/12 03:38:30;;;;;;;2.88;0.80;;;20.80;99.90;;;;;;5091025;28;20207;-77
2022/10/12 03:41:01;;;;;;;2.65;0.70;;;20.90;99.90;;;;;;5090126;28;20376;-79
2022/10/12 03:43:32;;;;;;;3.53;0.73;;;20.80;99.90;;;;;;5080528;28;20598;-79
2022/10/12 03:46:03;;;;;;;3.33;0.70;;;20.90;99.90;;;;;;5092420;28;20245;-79
2022/10/12 03:48:34;;;;;;;2.15;0.70;;;21.00;99.90;;;;;;5091345;28;20199;-79
2022/10/12 03:51:07;;;;;;;4.50;0.60;;;21.10;99.90;;;;;;5091929;28;20195;-79
2022/10/12 03:53:38;;;;;;;4.07;0.80;;;21.00;99.90;;;;;;5094021;28;20278;-79
2022/10/12 03:56:09;;;;;;;1.77;0.60;;;20.90;99.90;;;;;;5088601;28;20225;-79
2022/10/12 03:58:40;;;;;;;6.63;0.70;;;21.00;99.90;;;;;;5089798;28;20194;-79
2022/10/12 04:01:11;;;;;;;3.22;0.80;;;21.00;99.90;;;;;;5075912;28;20283;-79
2022/10/12 04:03:42;;;;;;;2.95;0.50;;;21.20;99.90;;;;;;5096350;28;20179;-81
2022/10/12 04:06:15;;;;;;;2.33;0.57;;;21.20;99.90;;;;;;5093582;28;20237;-80
2022/10/12 04:08:47;;;;;;;3.03;0.60;;;21.30;99.90;;;;;;5090608;28;20676;-80
2022/10/12 04:11:19;;;;;;;2.85;0.57;;;21.30;99.90;;;;;;5091548;28;20199;-81
2022/10/12 04:13:51;;;;;;;2.53;0.43;;;21.40;99.90;;;;;;5087990;28;20195;-81
2022/10/12 04:16:22;;;;;;;4.50;0.80;;;21.40;99.90;;;;;;5090487;28;20306;-78
2022/10/12 04:18:53;;;;;;;3.42;0.70;;;21.40;99.90;;;;;;5090628;28;20195;-79
2022/10/12 04:21:27;;;;;;;2.67;0.60;;;21.50;99.90;;;;;;5108863;28;20582;-79
2022/10/12 04:23:58;;;;;;;3.35;0.52;;;21.50;99.90;;;;;;5090376;28;20191;-80
2022/10/12 04:26:29;;;;;;;2.88;0.68;;;21.40;99.90;;;;;;5090513;28;20191;-80
2022/10/12 04:29:00;;;;;;;2.53;0.57;;;21.40;99.90;;;;;;5089985;28;20201;-80
2022/10/12 04:31:32;;;;;;;2.35;0.50;;;21.50;99.90;;;;;;5084784;28;20241;-79
2022/10/12 04:34:03;;;;;;;3.60;0.70;;;21.40;99.90;;;;;;5096678;28;20195;-79
2022/10/12 04:36:36;;;;;;;2.50;0.60;;;21.30;99.90;;;;;;5101347;28;20202;-77
2022/10/12 04:39:09;;;;;;;3.53;0.68;;;21.40;99.90;;;;;;5082919;28;20722;-77
2022/10/12 04:41:40;;;;;;;4.15;0.70;;;21.30;99.90;;;;;;5083769;28;20875;-78
2022/10/12 04:44:15;;;;;;;2.90;0.70;;;21.30;99.90;;;;;;5095460;28;20750;-78
2022/10/12 04:46:47;;;;;;;3.50;0.60;;;21.30;99.90;;;;;;5096904;28;20253;-79
2022/10/12 04:49:18;;;;;;;2.97;0.73;;;21.40;99.90;;;;;;5103490;28;20219;-79
2022/10/12 04:51:52;;;;;;;4.65;0.90;;;21.50;99.90;;;;;;5103657;28;20211;-78
2022/10/12 04:54:23;;;;;;;3.58;0.80;;;21.60;99.90;;;;;;5102210;28;20219;-78
2022/10/12 04:56:55;;;;;;;2.75;0.63;;;21.60;99.90;;;;;;5088508;28;20223;-78
2022/10/12 04:59:26;;;;;;;3.00;0.60;;;21.70;99.90;;;;;;5097864;28;20324;-79
2022/10/12 05:01:57;;;;;;;4.13;0.80;;;21.70;99.90;;;;;;5096843;28;20205;-78
2022/10/12 05:04:29;;;;;;;2.17;0.88;;;21.70;99.90;;;;;;5091244;28;20202;-78
2022/10/12 05:07:01;;;;;;;3.88;0.60;;;21.70;99.90;;;;;;5091854;28;20206;-79
2022/10/12 05:09:32;;;;;;;5.28;0.70;;;21.60;99.90;;;;;;5102903;28;20314;-77
2022/10/12 05:12:03;;;;;;;2.15;0.60;;;21.50;99.90;;;;;;5084928;28;20198;-78
2022/10/12 05:14:34;;;;;;;4.07;0.60;;;21.40;99.90;;;;;;5089157;28;20314;-78
2022/10/12 05:17:05;;;;;;;5.25;0.88;;;21.40;99.90;;;;;;5093654;28;20193;-78
2022/10/12 05:19:36;;;;;;;4.32;0.80;;;21.50;99.90;;;;;;5092665;28;20218;-80
2022/10/12 05:22:09;;;;;;;4.10;0.65;;;21.30;99.90;;;;;;5095088;28;20193;-80
2022/10/12 05:24:42;;;;;;;3.55;0.90;;;21.20;99.90;;;;;;5092249;28;20215;-80
2022/10/12 05:27:13;;;;;;;3.17;0.75;;;21.10;99.90;;;;;;5094270;28;20572;-80
2022/10/12 05:29:44;;;;;;;2.63;0.68;;;21.00;99.90;;;;;;5093120;28;20218;-80
2022/10/12 05:32:16;;;;;;;4.47;0.70;;;20.90;99.90;;;;;;5081184;28;20207;-80
2022/10/12 05:34:46;;;;;;;4.47;0.80;;;20.90;99.90;;;;;;5074468;28;20265;-78
2022/10/12 05:37:19;;;;;;;5.30;0.93;;;20.80;99.90;;;;;;5076484;28;20200;-80
2022/10/12 05:39:50;;;;;;;5.30;0.90;;;20.80;99.90;;;;;;5076773;28;20219;-78
2022/10/12 05:42:21;;;;;;;2.08;0.60;;;20.70;99.90;;;;;;5074283;28;20206;-79
2022/10/12 05:44:52;;;;;;;3.30;0.57;;;20.70;99.90;;;;;;5089591;28;20591;-80
2022/10/12 05:47:23;;;;;;;7.68;0.90;;;20.70;99.90;;;;;;5093822;28;20199;-79
2022/10/12 05:49:54;;;;;;;5.90;0.93;;;20.70;99.90;;;;;;5094095;28;20701;-79
2022/10/12 05:52:26;;;;;;;3.90;0.82;;;20.70;99.90;;;;;;5093909;28;20724;-79
2022/10/12 05:55:01;;;;;;;5.07;0.70;;;20.60;99.90;;;;;;5093884;28;20203;-79
2022/10/12 05:57:32;;;;;;;2.67;0.60;;;20.60;99.90;;;;;;5090702;28;20277;-78
2022/10/12 06:00:03;;;;;;;4.07;0.70;;;20.60;99.90;;;;;;5090562;28;20354;-79
2022/10/12 06:02:35;;;;;;;1.98;0.52;;;20.70;99.90;;;;;;5094268;28;20199;-79
2022/10/12 06:05:07;;;;;;;4.03;0.90;;;20.60;99.90;;;;;;5100456;28;20277;-79
2022/10/12 06:07:40;;;;;;;3.50;0.80;;;20.60;99.90;;;;;;5110952;28;20556;-79
2022/10/12 06:10:11;;;;;;;2.97;0.68;;;20.70;99.90;;;;;;5095010;28;20218;-78
2022/10/12 06:12:42;;;;;;;4.28;0.77;;;20.70;99.90;;;;;;5101976;28;20215;-80
2022/10/12 06:15:13;;;;;;;2.13;0.50;;;20.60;99.90;;;;;;5089099;28;20314;-79
2022/10/12 06:17:45;;;;;;;1.58;0.50;;;20.40;99.90;;;;;;5095140;28;20218;-79
2022/10/12 06:20:16;;;;;;;2.88;0.80;;;20.50;99.90;;;;;;5093745;28;20199;-79
2022/10/12 06:22:48;;;;;;;3.20;0.70;;;20.50;99.90;;;;;;5078608;28;20199;-79
2022/10/12 06:25:20;;;;;;;1.27;0.50;;;20.40;99.90;;;;;;5073350;28;20210;-80
2022/10/12 06:27:50;;;;;;;3.05;0.65;;;20.40;99.90;;;;;;5080707;28;20195;-79
2022/10/12 06:30:22;;;;;;;3.60;0.70;;;20.40;99.90;;;;;;5092951;28;20214;-80
2022/10/12 06:32:53;;;;;;;4.35;0.75;;;20.30;99.90;;;;;;5080352;28;20682;-80
2022/10/12 06:35:24;;;;;;;3.83;0.70;;;20.30;99.90;;;;;;5093446;28;20198;-79
2022/10/12 06:37:57;;;;;;;4.43;0.80;;;20.30;99.90;;;;;;5093813;28;20207;-80
2022/10/12 06:40:31;;;;;;;3.20;0.80;;;20.20;99.90;;;;;;5094372;28;20202;-79
2022/10/12 06:43:06;;;;;;;4.03;0.80;;;20.20;99.90;;;;;;5094915;28;20852;-79
2022/10/12 06:45:37;;;;;;;2.75;0.70;;;20.10;99.90;;;;;;5094139;28;20309;-80
2022/10/12 06:48:09;;;;;;;2.47;0.80;;;20.00;99.90;;;;;;5094128;28;20206;-80
2022/10/12 06:50:40;;;;;;;5.07;0.93;;;20.10;99.90;;;;;;5078778;28;20223;-80
2022/10/12 06:53:13;;;;;;;3.00;0.70;;;20.00;99.90;;;;;;5073379;28;20713;-80
2022/10/12 06:55:44;;;;;;;4.78;0.70;;;20.00;99.90;;;;;;5072230;28;20295;-79
2022/10/12 06:58:15;;;;;;;5.85;1.00;;;19.90;99.90;;;;;;5075715;28;20666;-78
2022/10/12 07:00:46;;;;;;;4.18;0.77;;;19.90;99.90;;;;;;5092546;28;20199;-78
2022/10/12 07:03:18;;;;;;;3.28;0.70;;;19.80;99.90;;;;;;5092925;28;20249;-77
2022/10/12 07:05:49;;;;;;;4.57;0.70;;;19.90;99.90;;;;;;5089653;28;20204;-77
2022/10/12 07:08:21;;;;;;;3.28;0.68;;;19.90;99.90;;;;;;5084239;28;20278;-79
2022/10/12 07:11:01;;;;;;;5.50;0.90;;;19.80;99.90;;;;;;5082497;28;20224;-79
2022/10/12 07:13:33;;;;;;;3.72;0.80;;;19.70;99.90;;;;;;5076784;28;20219;-80
2022/10/12 07:16:04;;;;;;;2.67;0.60;;;19.70;99.90;;;;;;5093575;28;20313;-79
2022/10/12 07:18:35;;;;;;;2.53;0.75;;;19.70;99.90;;;;;;5092040;28;20199;-79
2022/10/12 07:21:06;;;;;;;3.95;0.65;;;19.70;99.90;;;;;;5092156;28;20199;-78
2022/10/12 07:23:39;;;;;;;1.48;0.55;;;19.70;99.90;;;;;;5082438;28;20204;-79
2022/10/12 07:26:10;;;;;;;3.65;0.82;;;19.60;99.90;;;;;;5077670;28;20187;-77
2022/10/12 07:28:41;;;;;;;5.68;1.10;;;19.60;99.90;;;;;;5080701;28;20195;-78
2022/10/12 07:31:12;;;;;;;3.60;0.88;;;19.60;99.90;;;;;;5093055;28;20231;-77
2022/10/12 07:33:43;;;;;;;5.47;0.98;;;19.50;99.90;;;;;;5084528;28;20198;-77
2022/10/12 07:36:14;;;;;;;4.03;0.80;;;19.50;99.90;;;;;;5091868;28;20201;-78
2022/10/12 07:38:47;;;;;;;3.35;0.80;;;19.40;99.90;;;;;;5091834;28;20191;-77
2022/10/12 07:41:18;;;;;;;5.53;0.90;;;19.40;99.90;;;;;;5076162;28;20606;-77
2022/10/12 07:43:49;;;;;;;4.85;0.80;;;19.40;99.90;;;;;;5080725;28;20198;-77
2022/10/12 07:46:20;;;;;;;5.28;1.00;;;19.40;99.90;;;;;;5092016;28;20203;-78
2022/10/12 07:48:51;;;;;;;4.78;0.80;;;19.40;99.90;;;;;;5092132;28;20210;-78
2022/10/12 07:51:22;;;;;;;4.90;1.15;;;19.40;99.90;;;;;;5091534;28;20223;-77
2022/10/12 07:53:55;;;;;;;7.97;1.15;;;19.40;99.90;;;;;;5091708;28;20559;-76
2022/10/12 07:56:26;;;;;;;9.57;1.73;;;19.30;99.90;;;;;;5090934;28;20198;-75
2022/10/12 07:58:59;;;;;;;4.85;1.00;;;19.30;99.90;;;;;;5083595;28;20287;-77
2022/10/12 08:01:31;;;;;;;7.13;1.30;;;19.20;99.90;;;;;;5091657;28;20222;-78
2022/10/12 08:04:03;;;;;;;4.10;0.90;;;19.20;99.90;;;;;;5076121;28;20775;-78
2022/10/12 08:06:35;;;;;;;3.53;0.80;;;19.20;99.90;;;;;;5071783;28;20234;-78
2022/10/12 08:09:11;;;;;;;5.15;1.00;;;19.20;99.90;;;;;;5071946;28;20207;-78
2022/10/12 08:11:43;;;;;;;5.28;0.90;;;19.20;99.90;;;;;;5071679;28;20223;-78
2022/10/12 08:14:18;;;;;;;7.30;0.88;;;19.20;99.90;;;;;;5073885;28;20310;-78
2022/10/12 08:16:49;;;;;;;6.70;1.08;;;19.20;99.90;;;;;;5088098;28;20198;-78
2022/10/12 08:19:20;;;;;;;7.18;1.20;;;19.10;99.90;;;;;;5101050;28;20313;-78
2022/10/12 08:21:52;;;;;;;5.72;1.58;;;19.10;99.90;;;;;;5084955;28;20188;-78
2022/10/12 08:24:25;;;;;;;5.90;1.00;;;19.10;99.90;;;;;;5071403;28;20211;-78
2022/10/12 08:26:56;;;;;;;6.15;1.25;;;19.10;99.90;;;;;;5078033;28;20568;-78
2022/10/12 08:29:27;;;;;;;3.40;1.00;;;19.00;99.90;;;;;;5083186;28;20192;-78
2022/10/12 08:32:00;;;;;;;4.10;1.13;;;19.10;99.90;;;;;;5085118;28;20219;-75
2022/10/12 08:34:31;;;;;;;4.28;0.80;;;19.00;99.90;;;;;;5090351;28;20187;-76
2022/10/12 08:37:02;;;;;;;6.03;1.15;;;19.00;99.90;;;;;;5099773;28;20202;-76
2022/10/12 08:39:35;;;;;;;4.10;1.00;;;19.00;99.90;;;;;;5111476;28;20202;-76
2022/10/12 08:42:18;;;;;;;3.50;0.85;;;19.00;99.90;;;;;;5110975;28;20209;-76
2022/10/12 08:45:11;;;;;;;4.72;1.10;;;19.00;99.90;;;;;;5091641;28;20195;-76
2022/10/12 08:47:45;;;;;;;12.38;1.70;;;18.90;99.90;;;;;;5088543;28;20204;-77
2022/10/12 08:50:22;;;;;;;1.88;0.90;;;19.00;99.90;;;;;;5077833;28;20213;-77
2022/10/12 08:52:58;;;;;;;9.13;1.15;;;18.90;99.90;;;;;;5090954;28;20199;-76
2022/10/12 08:55:37;;;;;;;6.30;1.38;;;19.00;99.90;;;;;;5073821;28;20191;-76
2022/10/12 08:58:16;;;;;;;3.53;0.98;;;18.90;99.90;;;;;;5086305;28;20203;-76
2022/10/12 09:00:52;;;;;;;7.97;1.13;;;18.90;99.90;;;;;;5074461;28;20204;-76
2022/10/12 09:03:45;;;;;;;5.30;0.90;;;18.90;99.90;;;;;;5086586;28;20669;-76
2022/10/12 09:06:20;;;;;;;4.60;1.48;;;18.90;99.90;;;;;;5094478;28;20203;-75
2022/10/12 09:09:06;;;;;;;4.13;1.20;;;18.90;99.90;;;;;;5094880;28;20202;-76
2022/10/12 09:12:03;;;;;;;6.70;1.10;;;18.90;99.90;;;;;;5095401;28;20223;-76
2022/10/12 09:14:37;;;;;;;6.25;1.17;;;18.80;99.90;;;;;;5092424;28;20375;-76
2022/10/12 09:17:22;;;;;;;3.47;0.90;;;18.80;99.90;;;;;;5094662;28;20581;-76
2022/10/12 09:20:01;;;;;;;5.43;1.20;;;18.80;99.90;;;;;;5090369;28;20195;-76
2022/10/12 09:22:32;;;;;;;5.85;1.17;;;18.70;99.90;;;;;;5076445;28;20235;-75
2022/10/12 09:25:05;;;;;;;5.85;1.10;;;18.70;99.90;;;;;;5076096;28;20215;-75
2022/10/12 09:27:38;;;;;;;5.63;1.20;;;18.70;99.90;;;;;;5087923;28;20191;-76
2022/10/12 09:30:14;;;;;;;5.47;1.02;;;18.70;99.90;;;;;;5080401;28;20562;-76
2022/10/12 09:33:01;;;;;;;6.40;1.00;;;18.70;99.90;;;;;;5086177;28;20336;-76
2022/10/12 09:35:32;;;;;;;5.57;1.15;;;18.70;99.90;;;;;;5094371;28;20203;-76
2022/10/12 09:38:04;;;;;;;6.20;1.10;;;18.70;99.90;;;;;;5094334;28;20591;-76
2022/10/12 09:40:35;;;;;;;4.00;1.00;;;18.70;99.90;;;;;;5093442;28;20211;-77
2022/10/12 09:43:09;;;;;;;6.60;1.20;;;18.60;99.90;;;;;;5092879;28;20195;-76
2022/10/12 09:45:42;;;;;;;8.30;1.20;;;18.60;99.90;;;;;;5094047;28;20201;-76
2022/10/12 09:48:16;;;;;;;7.05;1.08;;;18.60;99.90;;;;;;5094389;28;20697;-76
2022/10/12 09:50:52;;;;;;;5.13;0.98;;;18.60;99.90;;;;;;5094230;28;20202;-76
2022/10/12 09:53:28;;;;;;;4.10;1.10;;;18.60;99.90;;;;;;5086036;28;20282;-76
2022/10/12 09:56:07;;;;;;;5.57;1.02;;;18.60;99.90;;;;;;5088181;28;20194;-77
2022/10/12 09:58:51;;;;;;;5.38;0.95;;;18.60;99.90;;;;;;5090758;28;20195;-77
2022/10/12 10:01:28;;;;;;;5.22;1.00;;;18.60;99.90;;;;;;5091548;28;20206;-77
2022/10/12 10:04:17;;;;;;;4.60;0.90;;;18.60;99.90;;;;;;5088565;28;20195;-78
2022/10/12 10:06:49;;;;;;;5.68;1.35;;;18.60;99.90;;;;;;5083147;28;20560;-78
2022/10/12 10:09:34;;;;;;;8.25;1.20;;;18.60;99.90;;;;;;5089573;28;20195;-77
2022/10/12 10:12:22;;;;;;;3.90;1.00;;;18.50;99.90;;;;;;5088470;28;20836;-78
2022/10/12 10:14:56;;;;;;;7.60;1.35;;;18.50;99.90;;;;;;5080949;28;20238;-78
2022/10/12 10:17:29;;;;;;;9.07;1.10;;;18.50;99.90;;;;;;5081482;28;20205;-77
2022/10/12 10:20:02;;;;;;;8.45;1.20;;;18.50;99.90;;;;;;5093022;28;20194;-77
2022/10/12 10:22:33;;;;;;;5.88;1.27;;;18.50;99.90;;;;;;5083336;28;20199;-77
2022/10/12 10:25:05;;;;;;;4.93;1.02;;;18.50;99.90;;;;;;5103150;28;20233;-77
2022/10/12 10:27:37;;;;;;;9.80;1.23;;;18.50;99.90;;;;;;5086054;28;20584;-76
2022/10/12 10:30:24;;;;;;;4.72;1.02;;;18.50;99.90;;;;;;5085757;28;20265;-77
2022/10/12 10:33:14;;;;;;;2.55;0.60;;;18.50;99.90;;;;;;5092565;28;20756;-77
2022/10/12 10:35:59;;;;;;;4.72;0.93;;;18.50;99.90;;;;;;5093658;28;20206;-77
2022/10/12 10:38:30;;;;;;;5.15;0.95;;;18.50;99.90;;;;;;5092537;28;20187;-77
2022/10/12 10:41:03;;;;;;;5.25;1.02;;;18.40;99.90;;;;;;5090959;28;20205;-77
2022/10/12 10:43:34;;;;;;;6.95;1.00;;;18.50;99.90;;;;;;5091835;28;20203;-76
2022/10/12 10:46:07;;;;;;;7.05;1.27;;;18.50;99.90;;;;;;5092852;28;20203;-77
2022/10/12 10:48:53;;;;;;;3.03;0.85;;;18.50;99.90;;;;;;5091292;28;20540;-77
2022/10/12 10:51:24;;;;;;;5.20;0.90;;;18.50;99.90;;;;;;5093272;28;20225;-77
2022/10/12 10:53:55;;;;;;;8.00;1.10;;;18.50;99.90;;;;;;5092663;28;20562;-78
2022/10/12 10:56:28;;;;;;;4.68;0.82;;;18.50;99.90;;;;;;5103500;28;20196;-78
2022/10/12 10:59:11;;;;;;;2.83;1.00;;;18.50;99.90;;;;;;5109474;28;20264;-75
2022/10/12 11:01:53;;;;;;;5.00;1.02;;;18.50;99.90;;;;;;5103933;28;20218;-78
2022/10/12 11:04:28;;;;;;;5.22;0.95;;;18.50;99.90;;;;;;5088660;28;20196;-78
2022/10/12 11:07:03;;;;;;;9.38;1.10;;;18.50;99.90;;;;;;5096926;28;20214;-77
2022/10/12 11:09:43;;;;;;;4.82;1.00;;;18.50;99.90;;;;;;5085127;28;20171;-78
2022/10/12 11:12:18;;;;;;;4.35;0.90;;;18.50;99.90;;;;;;5091921;28;20219;-79
2022/10/12 11:14:53;;;;;;;6.20;0.98;;;18.50;99.90;;;;;;5083772;28;20227;-78
2022/10/12 11:17:31;;;;;;;5.95;1.15;;;18.50;99.90;;;;;;5094602;28;20213;-78
2022/10/12 11:20:26;;;;;;;5.85;0.95;;;18.40;99.90;;;;;;5095403;28;20199;-77
2022/10/12 11:23:00;;;;;;;5.40;0.90;;;18.50;99.90;;;;;;5086922;28;20183;-77
2022/10/12 11:25:38;;;;;;;3.10;0.85;;;18.50;99.90;;;;;;5093586;28;20689;-76
2022/10/12 11:28:15;;;;;;;2.72;0.68;;;18.40;99.90;;;;;;5094138;28;20187;-78
2022/10/12 11:30:52;;;;;;;3.60;0.90;;;18.40;99.90;;;;;;5106129;28;20210;-79
2022/10/12 11:33:37;;;;;;;6.07;1.02;;;18.40;99.90;;;;;;5077338;28;20265;-77
2022/10/12 11:36:13;;;;;;;4.47;0.77;;;18.40;99.90;;;;;;5095897;28;20199;-77
2022/10/12 11:38:48;;;;;;;4.45;0.80;;;18.40;99.90;;;;;;5095866;28;20229;-77
2022/10/12 11:41:22;;;;;;;4.05;0.90;;;18.50;99.90;;;;;;5096522;28;20246;-77
2022/10/12 11:44:02;;;;;;;3.58;0.85;;;18.40;99.90;;;;;;5092430;28;20190;-75
2022/10/12 11:46:37;;;;;;;3.40;0.98;;;18.40;99.90;;;;;;5074171;28;20196;-75
2022/10/12 11:49:19;;;;;;;6.93;0.93;;;18.40;99.90;;;;;;5074446;28;20287;-75
2022/10/12 11:51:53;;;;;;;2.97;0.70;;;18.40;99.90;;;;;;5074500;28;20227;-74
2022/10/12 11:54:32;;;;;;;5.93;0.90;;;18.40;99.90;;;;;;5086541;28;20230;-77
2022/10/12 11:57:09;;;;;;;5.40;0.88;;;18.40;99.90;;;;;;5076603;28;20191;-78
2022/10/12 11:59:44;;;;;;;3.67;0.70;;;18.40;99.90;;;;;;5088036;28;20248;-77
2022/10/12 12:02:24;;;;;;;3.60;0.80;;;18.40;99.90;;;;;;5095044;28;20189;-77
2022/10/12 12:04:57;;;;;;;1.58;0.63;;;18.40;99.90;;;;;;5078950;28;20191;-77
2022/10/12 12:07:53;;;;;;;4.40;0.68;;;18.50;99.90;;;;;;5096827;28;20245;-78
2022/10/12 12:11:15;;;;;;;6.93;1.30;;;18.50;99.90;;;;;;5100979;28;20695;-78
2022/10/12 12:13:47;;;;;;;4.30;0.85;;;18.40;99.90;;;;;;5097756;28;20687;-77
2022/10/12 12:16:33;;;;;;;4.93;0.73;;;18.40;99.90;;;;;;5095905;28;20229;-78
2022/10/12 12:19:34;;;;;;;3.75;0.50;;;18.40;99.90;;;;;;5096493;28;20195;-78
2022/10/12 12:22:27;;;;;;;4.30;0.90;;;18.40;99.90;;;;;;5093703;28;20265;-80
2022/10/12 12:25:24;;;;;;;4.05;0.80;;;18.40;99.90;;;;;;5089150;28;20194;-78
2022/10/12 12:28:00;;;;;;;3.10;0.75;;;18.40;99.90;;;;;;5084682;28;20205;-77
2022/10/12 12:30:40;;;;;;;3.75;0.90;;;18.30;99.90;;;;;;5082045;28;20225;-78
2022/10/12 12:33:34;;;;;;;3.70;0.93;;;18.40;99.90;;;;;;5095911;28;20233;-77
2022/10/12 12:36:06;;;;;;;2.58;0.65;;;18.40;99.90;;;;;;5101584;28;20270;-76
2022/10/12 12:38:48;;;;;;;4.22;0.80;;;18.40;99.90;;;;;;5091758;28;20290;-78
2022/10/12 12:41:28;;;;;;;3.33;0.70;;;18.40;99.90;;;;;;5076809;28;20200;-77
2022/10/12 12:44:01;;;;;;;8.82;1.00;;;18.40;99.90;;;;;;5091332;28;20205;-78
2022/10/12 12:47:11;;;;;;;3.70;1.05;;;18.40;99.90;;;;;;5081128;28;20196;-77
2022/10/12 12:49:45;;;;;;;6.95;0.80;;;18.30;99.90;;;;;;5076016;28;20196;-76
2022/10/12 12:52:22;;;;;;;4.45;0.60;;;18.30;99.90;;;;;;5071204;28;20618;-77
2022/10/12 12:55:21;;;;;;;6.07;1.20;;;18.40;99.90;;;;;;5070725;28;20222;-77
2022/10/12 12:58:38;;;;;;;4.15;0.60;;;18.30;99.90;;;;;;5071895;28;20684;-77
2022/10/12 13:01:28;;;;;;;3.47;0.80;;;18.30;99.90;;;;;;5082576;28;20231;-77
2022/10/12 13:04:27;;;;;;;4.72;0.90;;;18.30;99.90;;;;;;5077332;28;20218;-78
2022/10/12 13:07:26;;;;;;;6.72;1.20;;;18.30;99.90;;;;;;5070232;28;20207;-77
2022/10/12 13:10:18;;;;;;;5.68;1.20;;;18.30;99.90;;;;;;5079562;28;20202;-78
2022/10/12 13:13:03;;;;;;;2.88;0.60;;;18.30;99.90;;;;;;5091443;28;20219;-78
2022/10/12 13:15:52;;;;;;;3.20;0.73;;;18.30;99.90;;;;;;5091250;28;20292;-75
2022/10/12 13:18:50;;;;;;;4.57;0.60;;;18.30;99.90;;;;;;5092508;28;20203;-78
2022/10/12 13:21:39;;;;;;;2.17;0.70;;;18.20;99.90;;;;;;5077781;28;20200;-78
2022/10/12 13:24:23;;;;;;;2.60;0.88;;;18.20;99.90;;;;;;5075161;28;20192;-78
2022/10/12 13:27:00;;;;;;;1.88;0.60;;;18.20;99.90;;;;;;5083061;28;20206;-78
2022/10/12 13:29:37;;;;;;;2.70;0.70;;;18.20;99.90;;;;;;5091843;28;20199;-78
2022/10/12 13:32:18;;;;;;;3.55;0.98;;;18.10;99.90;;;;;;5088445;28;20214;-77